createdAt,value
2022-09-26T00:00:01.624Z,100.00
2022-09-26T00:03:03.620Z,100.00
2022-09-26T00:06:07.756Z,100.00
2022-09-26T00:09:09.959Z,100.00
2022-09-26T00:12:11.770Z,100.00
2022-09-26T00:15:13.390Z,100.00
2022-09-26T00:18:15.201Z,100.00
2022-09-26T00:21:17.290Z,100.00
2022-09-26T00:24:19.145Z,100.00
2022-09-26T00:27:22.288Z,100.00
2022-09-26T00:30:23.902Z,100.00
2022-09-26T00:33:26.304Z,100.00
2022-09-26T00:36:38.187Z,100.00
2022-09-26T00:39:40.447Z,100.00
2022-09-26T00:42:42.150Z,100.00
2022-09-26T00:45:44.362Z,100.00
2022-09-26T00:48:49.378Z,100.00
2022-09-26T00:51:59.722Z,100.00
2022-09-26T00:55:04.547Z,100.00
2022-09-26T00:58:14.741Z,100.00
2022-09-26T01:01:18.058Z,100.00
2022-09-26T01:04:21.229Z,100.00
2022-09-26T01:07:26.194Z,100.00
2022-09-26T01:10:30.324Z,100.00
2022-09-26T01:13:34.456Z,100.00
2022-09-26T01:16:39.530Z,100.00
2022-09-26T01:19:53.161Z,100.00
2022-09-26T01:23:56.654Z,100.00
2022-09-26T01:27:04.356Z,100.00
2022-09-26T01:30:28.170Z,100.00
2022-09-26T01:33:47.250Z,100.00
2022-09-26T01:37:20.256Z,100.00
2022-09-26T01:40:30.654Z,100.00
2022-09-26T01:43:42.529Z,100.00
2022-09-26T01:46:54.652Z,100.00
2022-09-26T01:50:22.770Z,100.00
2022-09-26T01:53:35.159Z,100.00
2022-09-26T01:56:40.254Z,100.00
2022-09-26T01:59:48.924Z,100.00
2022-09-26T02:02:51.459Z,100.00
2022-09-26T02:06:01.190Z,100.00
2022-09-26T02:09:11.942Z,100.00
2022-09-26T02:12:21.065Z,100.00
2022-09-26T02:15:26.650Z,100.00
2022-09-26T02:18:43.704Z,100.00
2022-09-26T02:21:46.420Z,100.00
2022-09-26T02:24:48.362Z,100.00
2022-09-26T02:27:50.388Z,100.00
2022-09-26T02:30:54.339Z,100.00
2022-09-26T02:33:56.395Z,100.00
2022-09-26T02:37:01.382Z,100.00
2022-09-26T02:40:04.142Z,100.00
2022-09-26T02:43:15.112Z,100.00
2022-09-26T02:46:22.607Z,100.00
2022-09-26T02:49:32.634Z,100.00
2022-09-26T02:52:39.141Z,100.00
2022-09-26T02:55:59.511Z,100.00
2022-09-26T02:59:09.427Z,100.00
2022-09-26T03:02:19.266Z,100.00
2022-09-26T03:05:23.944Z,100.00
2022-09-26T03:08:28.083Z,100.00
2022-09-26T03:11:31.577Z,100.00
2022-09-26T03:14:36.009Z,100.00
2022-09-26T03:17:43.051Z,100.00
2022-09-26T03:20:44.948Z,100.00
2022-09-26T03:23:47.029Z,100.00
2022-09-26T03:26:50.634Z,100.00
2022-09-26T03:29:55.978Z,100.00
2022-09-26T03:32:58.134Z,100.00
2022-09-26T03:36:00.779Z,100.00
2022-09-26T03:39:02.417Z,100.00
2022-09-26T03:42:05.225Z,100.00
2022-09-26T03:45:12.095Z,100.00
2022-09-26T03:48:14.074Z,100.00
2022-09-26T03:51:15.672Z,100.00
2022-09-26T03:54:17.676Z,100.00
2022-09-26T03:57:20.697Z,100.00
2022-09-26T04:00:22.651Z,100.00
2022-09-26T04:03:24.461Z,100.00
2022-09-26T04:06:26.434Z,100.00
2022-09-26T04:09:28.094Z,100.00
2022-09-26T04:12:30.045Z,100.00
2022-09-26T04:15:31.747Z,100.00
2022-09-26T04:18:35.219Z,100.00
2022-09-26T04:21:37.849Z,100.00
2022-09-26T04:24:39.508Z,100.00
2022-09-26T04:27:41.450Z,100.00
2022-09-26T04:30:43.007Z,100.00
2022-09-26T04:33:45.240Z,100.00
2022-09-26T04:36:46.823Z,100.00
2022-09-26T04:39:48.697Z,100.00
2022-09-26T04:42:50.388Z,100.00
2022-09-26T04:45:52.034Z,100.00
2022-09-26T04:48:56.880Z,100.00
2022-09-26T04:51:58.438Z,100.00
2022-09-26T04:55:00.464Z,100.00
2022-09-26T04:58:02.690Z,100.00
2022-09-26T05:01:07.060Z,100.00
2022-09-26T05:04:10.893Z,100.00
2022-09-26T05:07:14.618Z,100.00
2022-09-26T05:10:16.283Z,100.00
2022-09-26T05:13:18.057Z,100.00
2022-09-26T05:16:19.981Z,100.00
2022-09-26T05:19:21.678Z,100.00
2022-09-26T05:22:23.597Z,100.00
2022-09-26T05:25:44.818Z,100.00
2022-09-26T05:29:08.357Z,100.00
2022-09-26T05:32:11.139Z,100.00
2022-09-26T05:35:12.718Z,100.00
2022-09-26T05:38:14.504Z,100.00
2022-09-26T05:41:16.250Z,100.00
2022-09-26T05:44:18.410Z,100.00
2022-09-26T05:47:20.089Z,100.00
2022-09-26T05:50:24.661Z,100.00
2022-09-26T05:53:26.719Z,100.00
2022-09-26T05:56:28.412Z,100.00
2022-09-26T05:59:30.409Z,100.00
2022-09-26T06:02:32.593Z,100.00
2022-09-26T06:05:34.984Z,100.00
2022-09-26T06:08:38.427Z,100.00
2022-09-26T06:11:40.029Z,100.00
2022-09-26T06:14:47.115Z,100.00
2022-09-26T06:17:48.710Z,100.00
2022-09-26T06:20:50.384Z,100.00
2022-09-26T06:23:52.349Z,100.00
2022-09-26T06:26:54.188Z,100.00
2022-09-26T06:29:55.785Z,100.00
2022-09-26T06:32:57.973Z,100.00
2022-09-26T06:36:01.334Z,100.00
2022-09-26T06:39:03.325Z,100.00
2022-09-26T06:42:08.191Z,100.00
2022-09-26T06:45:11.436Z,100.00
2022-09-26T06:48:13.635Z,100.00
2022-09-26T06:51:15.393Z,100.00
2022-09-26T06:54:17.035Z,100.00
2022-09-26T06:57:18.845Z,100.00
2022-09-26T07:00:20.566Z,100.00
2022-09-26T07:03:25.576Z,100.00
2022-09-26T07:06:27.195Z,100.00
2022-09-26T07:09:29.166Z,100.00
2022-09-26T07:12:31.481Z,100.00
2022-09-26T07:15:36.164Z,100.00
2022-09-26T07:18:40.004Z,100.00
2022-09-26T07:21:41.695Z,100.00
2022-09-26T07:24:50.217Z,100.00
2022-09-26T07:27:53.277Z,100.00
2022-09-26T07:30:59.881Z,100.00
2022-09-26T07:34:04.237Z,100.00
2022-09-26T07:37:05.863Z,100.00
2022-09-26T07:40:08.047Z,100.00
2022-09-26T07:43:45.454Z,100.00
2022-09-26T07:46:51.506Z,100.00
2022-09-26T07:50:11.283Z,100.00
2022-09-26T07:53:13.135Z,100.00
2022-09-26T07:56:16.581Z,100.00
2022-09-26T07:59:21.969Z,100.00
2022-09-26T08:02:26.515Z,100.00
2022-09-26T08:05:29.457Z,100.00
2022-09-26T08:08:31.116Z,100.00
2022-09-26T08:11:33.183Z,100.00
2022-09-26T08:14:34.784Z,100.00
2022-09-26T08:17:36.713Z,100.00
2022-09-26T08:20:38.468Z,100.00
2022-09-26T08:23:40.132Z,100.00
2022-09-26T08:26:44.617Z,100.00
2022-09-26T08:29:48.536Z,100.00
2022-09-26T08:32:59.119Z,100.00
2022-09-26T08:36:09.286Z,100.00
2022-09-26T08:39:11.153Z,100.00
2022-09-26T08:42:34.382Z,100.00
2022-09-26T08:46:04.121Z,100.00
2022-09-26T08:49:26.307Z,100.00
2022-09-26T08:52:40.865Z,100.00
2022-09-26T08:55:46.656Z,100.00
2022-09-26T08:58:52.953Z,100.00
2022-09-26T09:01:59.132Z,100.00
2022-09-26T09:05:11.629Z,100.00
2022-09-26T09:08:17.409Z,100.00
2022-09-26T09:11:40.671Z,100.00
2022-09-26T09:15:34.960Z,100.00
2022-09-26T09:18:51.657Z,100.00
2022-09-26T09:22:26.425Z,100.00
2022-09-26T09:25:35.837Z,100.00
2022-09-26T09:28:49.734Z,100.00
2022-09-26T09:31:53.516Z,100.00
2022-09-26T09:34:56.082Z,100.00
2022-09-26T09:37:58.515Z,100.00
2022-09-26T09:41:06.057Z,100.00
2022-09-26T09:44:29.993Z,100.00
2022-09-26T09:47:38.010Z,100.00
2022-09-26T09:51:00.352Z,100.00
2022-09-26T09:54:26.343Z,100.00
2022-09-26T09:57:40.417Z,100.00
2022-09-26T10:00:54.217Z,100.00
2022-09-26T10:04:32.857Z,100.00
2022-09-26T10:07:34.499Z,100.00
2022-09-26T10:10:48.227Z,100.00
2022-09-26T10:13:55.375Z,100.00
2022-09-26T10:17:09.060Z,100.00
2022-09-26T10:20:38.087Z,100.00
2022-09-26T10:23:43.434Z,100.00
2022-09-26T10:26:47.169Z,100.00
2022-09-26T10:30:03.645Z,100.00
2022-09-26T10:33:05.704Z,100.00
2022-09-26T10:36:17.045Z,100.00
2022-09-26T10:39:40.242Z,100.00
2022-09-26T10:42:47.082Z,100.00
2022-09-26T10:45:54.898Z,100.00
2022-09-26T10:49:02.105Z,100.00
2022-09-26T10:52:16.021Z,100.00
2022-09-26T10:55:29.845Z,100.00
2022-09-26T10:58:32.475Z,100.00
2022-09-26T11:01:41.553Z,100.00
2022-09-26T11:05:05.566Z,100.00
2022-09-26T11:08:10.473Z,100.00
2022-09-26T11:11:17.607Z,100.00
2022-09-26T11:14:31.288Z,100.00
2022-09-26T11:17:53.745Z,100.00
2022-09-26T11:21:23.125Z,100.00
2022-09-26T11:24:59.325Z,100.00
2022-09-26T11:28:07.181Z,100.00
2022-09-26T11:31:24.979Z,100.00
2022-09-26T11:34:29.083Z,100.00
2022-09-26T11:37:36.778Z,100.00
2022-09-26T11:40:49.003Z,100.00
2022-09-26T11:44:05.146Z,100.00
2022-09-26T11:47:34.421Z,100.00
2022-09-26T11:50:45.645Z,100.00
2022-09-26T11:54:18.072Z,100.00
2022-09-26T11:57:34.951Z,100.00
2022-09-26T12:00:55.969Z,100.00
2022-09-26T12:04:16.619Z,100.00
2022-09-26T12:07:46.541Z,100.00
2022-09-26T12:11:16.883Z,100.00
2022-09-26T12:14:39.542Z,100.00
2022-09-26T12:18:19.046Z,100.00
2022-09-26T12:21:24.031Z,100.00
2022-09-26T12:24:37.288Z,100.00
2022-09-26T12:27:38.946Z,100.00
2022-09-26T12:31:05.455Z,99.33
2022-09-26T12:34:41.712Z,98.35
2022-09-26T12:37:57.449Z,96.73
2022-09-26T12:41:03.054Z,93.86
2022-09-26T12:44:20.907Z,94.40
2022-09-26T12:47:41.208Z,89.84
2022-09-26T12:51:08.960Z,88.92
2022-09-26T12:54:25.663Z,89.32
2022-09-26T12:57:51.839Z,89.42
2022-09-26T13:01:24.014Z,88.34
2022-09-26T13:04:48.056Z,91.54
2022-09-26T13:08:09.557Z,91.93
2022-09-26T13:11:32.214Z,91.85
2022-09-26T13:15:06.728Z,91.29
2022-09-26T13:18:20.934Z,94.84
2022-09-26T13:22:02.424Z,92.39
2022-09-26T13:25:27.961Z,87.10
2022-09-26T13:28:38.599Z,81.18
2022-09-26T13:32:11.423Z,77.39
2022-09-26T13:35:21.023Z,74.90
2022-09-26T13:38:53.498Z,73.54
2022-09-26T13:42:04.848Z,76.64
2022-09-26T13:45:26.695Z,78.75
2022-09-26T13:49:03.903Z,80.90
2022-09-26T13:52:15.428Z,81.19
2022-09-26T13:55:19.988Z,86.44
2022-09-26T13:58:26.084Z,84.17
2022-09-26T14:01:28.584Z,86.36
2022-09-26T14:04:35.997Z,85.74
2022-09-26T14:07:56.351Z,83.23
2022-09-26T14:11:08.744Z,85.91
2022-09-26T14:14:19.339Z,85.82
2022-09-26T14:17:41.954Z,86.42
2022-09-26T14:21:09.556Z,85.88
2022-09-26T14:24:20.333Z,86.29
2022-09-26T14:27:25.858Z,85.17
2022-09-26T14:30:30.278Z,85.83
2022-09-26T14:33:33.356Z,86.77
2022-09-26T14:36:35.732Z,88.62
2022-09-26T14:39:43.558Z,90.61
2022-09-26T14:42:45.426Z,92.22
2022-09-26T14:46:02.613Z,92.48
2022-09-26T14:49:08.264Z,93.33
2022-09-26T14:52:20.160Z,93.79
2022-09-26T14:55:22.119Z,93.51
2022-09-26T14:58:30.620Z,99.71
2022-09-26T15:01:38.507Z,100.00
2022-09-26T15:04:43.375Z,100.00
2022-09-26T15:07:47.867Z,99.57
2022-09-26T15:10:51.179Z,100.00
2022-09-26T15:13:55.398Z,100.00
2022-09-26T15:17:00.928Z,99.98
2022-09-26T15:20:07.487Z,100.00
2022-09-26T15:23:27.232Z,100.00
2022-09-26T15:26:36.312Z,100.00
2022-09-26T15:29:49.834Z,100.00
2022-09-26T15:32:58.128Z,100.00
2022-09-26T15:36:01.751Z,100.00
2022-09-26T15:39:32.532Z,100.00
2022-09-26T15:42:52.953Z,100.00
2022-09-26T15:45:59.748Z,100.00
2022-09-26T15:49:01.639Z,100.00
2022-09-26T15:52:03.723Z,100.00
2022-09-26T15:55:07.106Z,100.00
2022-09-26T15:58:15.785Z,100.00
2022-09-26T16:01:20.416Z,100.00
2022-09-26T16:04:27.217Z,100.00
2022-09-26T16:07:33.007Z,100.00
2022-09-26T16:10:34.769Z,100.00
2022-09-26T16:13:42.532Z,100.00
2022-09-26T16:16:44.490Z,100.00
2022-09-26T16:19:50.155Z,100.00
2022-09-26T16:23:00.373Z,100.00
2022-09-26T16:26:23.544Z,100.00
2022-09-26T16:29:35.048Z,100.00
2022-09-26T16:32:37.487Z,100.00
2022-09-26T16:35:47.459Z,100.00
2022-09-26T16:39:04.857Z,100.00
2022-09-26T16:42:16.775Z,100.00
2022-09-26T16:45:18.977Z,100.00
2022-09-26T16:48:41.103Z,100.00
2022-09-26T16:52:10.574Z,100.00
2022-09-26T16:55:13.162Z,100.00
2022-09-26T16:58:16.113Z,100.00
2022-09-26T17:01:37.664Z,100.00
2022-09-26T17:04:39.929Z,100.00
2022-09-26T17:07:41.502Z,100.00
2022-09-26T17:10:44.285Z,100.00
2022-09-26T17:13:49.356Z,100.00
2022-09-26T17:16:58.462Z,100.00
2022-09-26T17:20:01.986Z,100.00
2022-09-26T17:23:27.752Z,100.00
2022-09-26T17:26:30.415Z,100.00
2022-09-26T17:29:39.935Z,100.00
2022-09-26T17:32:47.277Z,100.00
2022-09-26T17:35:49.046Z,100.00
2022-09-26T17:38:51.705Z,100.00
2022-09-26T17:41:54.984Z,100.00
2022-09-26T17:44:56.927Z,100.00
2022-09-26T17:48:02.539Z,100.00
2022-09-26T17:51:04.827Z,100.00
2022-09-26T17:54:07.510Z,100.00
2022-09-26T17:57:14.534Z,100.00
2022-09-26T18:00:18.301Z,100.00
2022-09-26T18:03:23.800Z,100.00
2022-09-26T18:06:28.595Z,100.00
2022-09-26T18:09:34.439Z,100.00
2022-09-26T18:12:36.873Z,100.00
2022-09-26T18:15:39.027Z,100.00
2022-09-26T18:18:40.658Z,100.00
2022-09-26T18:21:42.867Z,100.00
2022-09-26T18:24:48.537Z,100.00
2022-09-26T18:27:53.776Z,100.00
2022-09-26T18:30:59.362Z,100.00
2022-09-26T18:34:03.498Z,100.00
2022-09-26T18:37:06.634Z,100.00
2022-09-26T18:40:11.826Z,100.00
2022-09-26T18:43:18.595Z,100.00
2022-09-26T18:46:23.403Z,100.00
2022-09-26T18:49:26.535Z,100.00
2022-09-26T18:52:29.714Z,100.00
2022-09-26T18:55:50.852Z,100.00
2022-09-26T18:58:53.516Z,100.00
2022-09-26T19:01:55.913Z,100.00
2022-09-26T19:04:58.860Z,100.00
2022-09-26T19:08:06.054Z,100.00
2022-09-26T19:11:14.059Z,100.00
2022-09-26T19:14:30.954Z,100.00
2022-09-26T19:17:33.061Z,100.00
2022-09-26T19:20:35.047Z,100.00
2022-09-26T19:23:37.487Z,100.00
2022-09-26T19:26:43.125Z,100.00
2022-09-26T19:30:11.515Z,100.00
2022-09-26T19:33:14.182Z,100.00
2022-09-26T19:36:18.155Z,100.00
2022-09-26T19:39:21.317Z,100.00
2022-09-26T19:42:23.505Z,100.00
2022-09-26T19:45:26.522Z,100.00
2022-09-26T19:48:29.237Z,100.00
2022-09-26T19:51:33.951Z,100.00
2022-09-26T19:54:35.970Z,100.00
2022-09-26T19:57:37.623Z,100.00
2022-09-26T20:00:43.563Z,100.00
2022-09-26T20:03:46.377Z,100.00
2022-09-26T20:06:48.039Z,100.00
2022-09-26T20:09:50.077Z,100.00
2022-09-26T20:12:52.236Z,100.00
2022-09-26T20:15:54.842Z,100.00
2022-09-26T20:18:57.221Z,100.00
2022-09-26T20:22:02.674Z,100.00
2022-09-26T20:25:05.413Z,100.00
2022-09-26T20:28:07.075Z,100.00
2022-09-26T20:31:28.158Z,100.00
2022-09-26T20:34:30.460Z,100.00
2022-09-26T20:37:36.540Z,100.00
2022-09-26T20:40:39.740Z,100.00
2022-09-26T20:43:46.868Z,100.00
2022-09-26T20:46:50.635Z,100.00
2022-09-26T20:49:58.404Z,100.00
2022-09-26T20:52:59.994Z,100.00
2022-09-26T20:56:04.010Z,100.00
2022-09-26T20:59:06.701Z,100.00
2022-09-26T21:02:40.579Z,100.00
2022-09-26T21:05:43.624Z,100.00
2022-09-26T21:08:45.989Z,100.00
2022-09-26T21:11:50.745Z,100.00
2022-09-26T21:14:52.655Z,100.00
2022-09-26T21:17:55.275Z,100.00
2022-09-26T21:21:04.401Z,100.00
2022-09-26T21:24:06.104Z,100.00
2022-09-26T21:27:12.544Z,100.00
2022-09-26T21:30:16.535Z,100.00
2022-09-26T21:33:18.720Z,100.00
2022-09-26T21:36:23.415Z,100.00
2022-09-26T21:39:26.528Z,100.00
2022-09-26T21:42:28.216Z,100.00
2022-09-26T21:45:30.203Z,100.00
2022-09-26T21:48:32.648Z,100.00
2022-09-26T21:51:36.653Z,100.00
2022-09-26T21:54:43.084Z,100.00
2022-09-26T21:57:47.320Z,100.00
2022-09-26T22:00:48.991Z,100.00
2022-09-26T22:03:50.879Z,100.00
2022-09-26T22:06:52.466Z,100.00
2022-09-26T22:09:54.242Z,100.00
2022-09-26T22:12:56.153Z,100.00
2022-09-26T22:16:08.233Z,100.00
2022-09-26T22:19:10.406Z,100.00
2022-09-26T22:22:12.410Z,100.00
2022-09-26T22:25:14.015Z,100.00
2022-09-26T22:28:15.823Z,100.00
2022-09-26T22:31:17.890Z,100.00
2022-09-26T22:34:22.697Z,100.00
2022-09-26T22:37:24.821Z,100.00
2022-09-26T22:40:26.901Z,100.00
2022-09-26T22:43:29.362Z,100.00
2022-09-26T22:46:33.811Z,100.00
2022-09-26T22:49:35.441Z,100.00
2022-09-26T22:52:37.039Z,100.00
2022-09-26T22:55:39.026Z,100.00
2022-09-26T22:58:51.359Z,100.00
2022-09-26T23:01:52.998Z,100.00
2022-09-26T23:04:54.611Z,100.00
2022-09-26T23:07:56.633Z,100.00
2022-09-26T23:10:58.484Z,100.00
2022-09-26T23:14:00.193Z,100.00
2022-09-26T23:17:02.264Z,100.00
2022-09-26T23:20:04.513Z,100.00
2022-09-26T23:23:07.410Z,100.00
2022-09-26T23:26:16.606Z,100.00
2022-09-26T23:29:18.502Z,100.00
2022-09-26T23:32:20.164Z,100.00
2022-09-26T23:35:21.798Z,100.00
2022-09-26T23:38:23.622Z,100.00
2022-09-26T23:41:25.930Z,100.00
2022-09-26T23:44:28.032Z,100.00
2022-09-26T23:47:29.598Z,100.00
2022-09-26T23:50:31.416Z,100.00
2022-09-26T23:53:33.174Z,100.00
2022-09-26T23:56:34.978Z,100.00
2022-09-26T23:59:36.782Z,100.00
